createdAt,value
2019-05-03T00:00:31.000Z,31
2019-05-03T00:01:31.000Z,31
2019-05-03T00:02:31.000Z,31
2019-05-03T00:03:31.000Z,31
2019-05-03T00:04:31.000Z,31
2019-05-03T00:05:31.000Z,31
2019-05-03T00:06:31.000Z,31
2019-05-03T00:07:31.000Z,31
2019-05-03T00:08:31.000Z,31
2019-05-03T00:09:31.000Z,31
2019-05-03T00:10:31.000Z,31
2019-05-03T00:11:31.000Z,31
2019-05-03T00:12:31.000Z,31
2019-05-03T00:14:31.000Z,31
2019-05-03T00:15:31.000Z,31
2019-05-03T00:16:31.000Z,31
2019-05-03T00:17:31.000Z,31
2019-05-03T00:18:31.000Z,31
2019-05-03T00:19:31.000Z,31
2019-05-03T00:20:31.000Z,31
2019-05-03T00:21:31.000Z,31
2019-05-03T00:22:31.000Z,31
2019-05-03T00:23:31.000Z,31
2019-05-03T00:24:31.000Z,31
2019-05-03T00:25:31.000Z,31
2019-05-03T00:26:31.000Z,31
2019-05-03T00:27:31.000Z,31
2019-05-03T00:28:31.000Z,31
2019-05-03T00:29:31.000Z,31
2019-05-03T00:30:31.000Z,31
2019-05-03T00:31:31.000Z,31
2019-05-03T00:32:31.000Z,31
2019-05-03T00:33:31.000Z,31
2019-05-03T00:34:31.000Z,31
2019-05-03T00:35:31.000Z,31
2019-05-03T00:36:31.000Z,31
2019-05-03T00:37:31.000Z,31
2019-05-03T00:39:31.000Z,31
2019-05-03T00:40:31.000Z,31
2019-05-03T00:42:31.000Z,31
2019-05-03T00:44:31.000Z,31
2019-05-03T00:45:31.000Z,31
2019-05-03T00:46:31.000Z,31
2019-05-03T00:48:31.000Z,31
2019-05-03T00:50:31.000Z,31
2019-05-03T00:51:31.000Z,31
2019-05-03T00:52:31.000Z,31
2019-05-03T00:54:31.000Z,31
2019-05-03T00:55:31.000Z,31
2019-05-03T00:56:31.000Z,31
2019-05-03T00:58:31.000Z,31
2019-05-03T00:59:31.000Z,31
2019-05-03T01:01:31.000Z,31
2019-05-03T01:02:31.000Z,31
2019-05-03T01:03:31.000Z,31
2019-05-03T01:04:31.000Z,31
2019-05-03T01:05:31.000Z,31
2019-05-03T01:06:31.000Z,31
2019-05-03T01:07:31.000Z,31
2019-05-03T01:08:31.000Z,31
2019-05-03T01:09:31.000Z,31
2019-05-03T01:10:31.000Z,31
2019-05-03T01:11:31.000Z,31
2019-05-03T01:12:31.000Z,31
2019-05-03T01:13:31.000Z,31
2019-05-03T01:14:31.000Z,31
2019-05-03T01:15:31.000Z,32
2019-05-03T01:16:31.000Z,31
2019-05-03T01:17:31.000Z,31
2019-05-03T01:18:31.000Z,31
2019-05-03T01:19:31.000Z,31
2019-05-03T01:20:31.000Z,31
2019-05-03T01:21:31.000Z,31
2019-05-03T01:22:31.000Z,31
2019-05-03T01:23:31.000Z,31
2019-05-03T01:24:31.000Z,31
2019-05-03T01:25:31.000Z,31
2019-05-03T01:26:31.000Z,31
2019-05-03T01:28:31.000Z,31
2019-05-03T01:29:31.000Z,31
2019-05-03T01:30:31.000Z,31
2019-05-03T01:31:31.000Z,31
2019-05-03T01:33:31.000Z,31
2019-05-03T01:34:31.000Z,31
2019-05-03T01:35:31.000Z,31
2019-05-03T01:37:31.000Z,31
2019-05-03T01:38:31.000Z,31
2019-05-03T01:40:31.000Z,31
2019-05-03T01:41:31.000Z,31
2019-05-03T01:42:31.000Z,31
2019-05-03T01:43:31.000Z,31
2019-05-03T01:44:31.000Z,32
2019-05-03T01:45:31.000Z,31
2019-05-03T01:46:31.000Z,31
2019-05-03T01:47:31.000Z,31
2019-05-03T01:48:31.000Z,31
2019-05-03T01:49:31.000Z,31
2019-05-03T01:50:31.000Z,31
2019-05-03T01:51:31.000Z,31
2019-05-03T01:52:31.000Z,31
2019-05-03T01:53:31.000Z,31
2019-05-03T01:54:31.000Z,31
2019-05-03T01:55:31.000Z,31
2019-05-03T01:56:31.000Z,31
2019-05-03T01:58:31.000Z,31
2019-05-03T01:59:31.000Z,31
2019-05-03T02:00:31.000Z,31
2019-05-03T02:01:31.000Z,31
2019-05-03T02:02:31.000Z,31
2019-05-03T02:03:31.000Z,31
2019-05-03T02:04:31.000Z,31
2019-05-03T02:05:31.000Z,31
2019-05-03T02:06:31.000Z,31
2019-05-03T02:07:31.000Z,32
2019-05-03T02:08:31.000Z,31
2019-05-03T02:09:31.000Z,31
2019-05-03T02:10:31.000Z,31
2019-05-03T02:11:31.000Z,31
2019-05-03T02:12:31.000Z,31
2019-05-03T02:13:31.000Z,31
2019-05-03T02:14:31.000Z,31
2019-05-03T02:16:31.000Z,31
2019-05-03T02:17:31.000Z,31
2019-05-03T02:19:31.000Z,31
2019-05-03T02:20:31.000Z,31
2019-05-03T02:21:31.000Z,31
2019-05-03T02:22:31.000Z,31
2019-05-03T02:23:31.000Z,31
2019-05-03T02:24:31.000Z,31
2019-05-03T02:25:31.000Z,31
2019-05-03T02:27:31.000Z,31
2019-05-03T02:28:31.000Z,31
2019-05-03T02:29:31.000Z,31
2019-05-03T02:30:31.000Z,31
2019-05-03T02:31:31.000Z,31
2019-05-03T02:32:31.000Z,31
2019-05-03T02:33:31.000Z,31
2019-05-03T02:34:31.000Z,31
2019-05-03T02:35:31.000Z,31
2019-05-03T02:36:31.000Z,31
2019-05-03T02:37:31.000Z,31
2019-05-03T02:38:31.000Z,31
2019-05-03T02:39:31.000Z,31
2019-05-03T02:41:31.000Z,31
2019-05-03T02:42:31.000Z,31
2019-05-03T02:43:31.000Z,31
2019-05-03T02:44:30.000Z,32
2019-05-03T02:45:30.000Z,31
2019-05-03T02:46:30.000Z,32
2019-05-03T02:47:30.000Z,31
2019-05-03T02:49:30.000Z,31
2019-05-03T02:50:30.000Z,31
2019-05-03T02:51:30.000Z,31
2019-05-03T02:52:30.000Z,31
2019-05-03T02:53:30.000Z,31
2019-05-03T02:55:30.000Z,31
2019-05-03T02:56:30.000Z,31
2019-05-03T02:57:30.000Z,31
2019-05-03T02:58:30.000Z,31
2019-05-03T02:59:30.000Z,31
2019-05-03T03:00:30.000Z,31
2019-05-03T03:01:30.000Z,31
2019-05-03T03:02:30.000Z,31
2019-05-03T03:03:30.000Z,31
2019-05-03T03:05:30.000Z,31
2019-05-03T03:06:30.000Z,31
2019-05-03T03:07:30.000Z,31
2019-05-03T03:09:30.000Z,31
2019-05-03T03:10:30.000Z,31
2019-05-03T03:11:30.000Z,31
2019-05-03T03:12:30.000Z,31
2019-05-03T03:13:30.000Z,31
2019-05-03T03:14:30.000Z,31
2019-05-03T03:15:30.000Z,31
2019-05-03T03:17:30.000Z,31
2019-05-03T03:18:30.000Z,31
2019-05-03T03:19:30.000Z,31
2019-05-03T03:20:30.000Z,31
2019-05-03T03:21:30.000Z,30
2019-05-03T03:22:30.000Z,30
2019-05-03T03:24:30.000Z,30
2019-05-03T03:25:30.000Z,30
2019-05-03T03:26:30.000Z,30
2019-05-03T03:27:30.000Z,30
2019-05-03T03:28:30.000Z,30
2019-05-03T03:30:30.000Z,30
2019-05-03T03:31:30.000Z,30
2019-05-03T03:33:30.000Z,30
2019-05-03T03:34:30.000Z,30
2019-05-03T03:35:30.000Z,31
2019-05-03T03:37:30.000Z,31
2019-05-03T03:38:30.000Z,31
2019-05-03T03:39:30.000Z,31
2019-05-03T03:40:30.000Z,31
2019-05-03T03:42:30.000Z,31
2019-05-03T03:43:30.000Z,31
2019-05-03T03:44:30.000Z,31
2019-05-03T03:45:30.000Z,31
2019-05-03T03:46:30.000Z,31
2019-05-03T03:47:30.000Z,31
2019-05-03T03:48:31.000Z,32
2019-05-03T03:49:31.000Z,32
2019-05-03T03:51:31.000Z,33
2019-05-03T03:52:31.000Z,33
2019-05-03T03:54:31.000Z,34
2019-05-03T03:55:31.000Z,34
2019-05-03T03:56:31.000Z,34
2019-05-03T03:57:31.000Z,34
2019-05-03T03:58:31.000Z,34
2019-05-03T03:59:31.000Z,34
2019-05-03T04:00:31.000Z,34
2019-05-03T04:01:31.000Z,34
2019-05-03T04:02:31.000Z,34
2019-05-03T04:03:31.000Z,34
2019-05-03T04:04:31.000Z,34
2019-05-03T04:05:31.000Z,34
2019-05-03T04:06:31.000Z,34
2019-05-03T04:08:31.000Z,34
2019-05-03T04:09:31.000Z,34
2019-05-03T04:10:31.000Z,34
2019-05-03T04:11:31.000Z,34
2019-05-03T04:12:31.000Z,34
2019-05-03T04:13:31.000Z,34
2019-05-03T04:15:31.000Z,34
2019-05-03T04:16:31.000Z,34
2019-05-03T04:18:31.000Z,34
2019-05-03T04:19:31.000Z,34
2019-05-03T04:20:31.000Z,34
2019-05-03T04:21:31.000Z,34
2019-05-03T04:22:31.000Z,34
2019-05-03T04:23:31.000Z,33
2019-05-03T04:24:31.000Z,33
2019-05-03T04:25:31.000Z,33
2019-05-03T04:26:31.000Z,33
2019-05-03T04:27:31.000Z,33
2019-05-03T04:28:31.000Z,33
2019-05-03T04:29:31.000Z,33
2019-05-03T04:30:31.000Z,33
2019-05-03T04:31:31.000Z,33
2019-05-03T04:32:31.000Z,34
2019-05-03T04:33:31.000Z,34
2019-05-03T04:34:31.000Z,34
2019-05-03T04:35:31.000Z,34
2019-05-03T04:36:31.000Z,34
2019-05-03T04:37:31.000Z,34
2019-05-03T04:38:31.000Z,34
2019-05-03T04:39:31.000Z,34
2019-05-03T04:40:31.000Z,34
2019-05-03T04:41:31.000Z,34
2019-05-03T04:42:31.000Z,35
2019-05-03T04:43:31.000Z,35
2019-05-03T04:44:31.000Z,35
2019-05-03T04:45:31.000Z,35
2019-05-03T04:46:31.000Z,35
2019-05-03T04:47:31.000Z,35
2019-05-03T04:48:31.000Z,35
2019-05-03T04:50:31.000Z,35
2019-05-03T04:51:31.000Z,35
2019-05-03T04:52:31.000Z,35
2019-05-03T04:53:31.000Z,35
2019-05-03T04:54:31.000Z,35
2019-05-03T04:55:31.000Z,35
2019-05-03T04:56:31.000Z,35
2019-05-03T04:57:31.000Z,35
2019-05-03T04:58:31.000Z,35
2019-05-03T04:59:31.000Z,35
2019-05-03T05:00:31.000Z,35
2019-05-03T05:01:31.000Z,35
2019-05-03T05:02:31.000Z,35
2019-05-03T05:03:31.000Z,35
2019-05-03T05:04:31.000Z,35
2019-05-03T05:05:31.000Z,35
2019-05-03T05:06:31.000Z,35
2019-05-03T05:07:31.000Z,35
2019-05-03T05:08:31.000Z,35
2019-05-03T05:09:31.000Z,35
2019-05-03T05:10:31.000Z,35
2019-05-03T05:11:31.000Z,34
2019-05-03T05:13:31.000Z,34
2019-05-03T05:14:31.000Z,34
2019-05-03T05:15:31.000Z,34
2019-05-03T05:16:31.000Z,34
2019-05-03T05:17:31.000Z,34
2019-05-03T05:18:31.000Z,34
2019-05-03T05:19:31.000Z,34
2019-05-03T05:20:31.000Z,34
2019-05-03T05:21:31.000Z,34
2019-05-03T05:22:31.000Z,34
2019-05-03T05:23:31.000Z,34
2019-05-03T05:24:31.000Z,33
2019-05-03T05:25:31.000Z,34
2019-05-03T05:27:31.000Z,34
2019-05-03T05:28:31.000Z,34
2019-05-03T05:29:31.000Z,34
2019-05-03T05:30:31.000Z,34
2019-05-03T05:31:31.000Z,34
2019-05-03T05:32:31.000Z,34
2019-05-03T05:33:31.000Z,34
2019-05-03T05:34:31.000Z,34
2019-05-03T05:35:31.000Z,34
2019-05-03T05:36:31.000Z,34
2019-05-03T05:37:31.000Z,34
2019-05-03T05:38:31.000Z,34
2019-05-03T05:39:31.000Z,34
2019-05-03T05:40:31.000Z,34
2019-05-03T05:41:31.000Z,34
2019-05-03T05:42:31.000Z,34
2019-05-03T05:43:31.000Z,34
2019-05-03T05:44:31.000Z,35
2019-05-03T05:45:31.000Z,35
2019-05-03T05:46:31.000Z,35
2019-05-03T05:48:31.000Z,35
2019-05-03T05:49:31.000Z,35
2019-05-03T05:50:31.000Z,35
2019-05-03T05:51:31.000Z,35
2019-05-03T05:52:31.000Z,35
2019-05-03T05:53:31.000Z,35
2019-05-03T05:55:31.000Z,34
2019-05-03T05:56:31.000Z,34
2019-05-03T05:58:31.000Z,34
2019-05-03T05:59:31.000Z,34
2019-05-03T06:01:31.000Z,34
2019-05-03T06:02:31.000Z,34
2019-05-03T06:03:31.000Z,34
2019-05-03T06:04:31.000Z,34
2019-05-03T06:06:31.000Z,33
2019-05-03T06:07:31.000Z,33
2019-05-03T06:08:31.000Z,33
2019-05-03T06:09:31.000Z,33
2019-05-03T06:10:31.000Z,33
2019-05-03T06:11:31.000Z,33
2019-05-03T06:12:31.000Z,33
2019-05-03T06:13:31.000Z,33
2019-05-03T06:15:31.000Z,33
2019-05-03T06:16:31.000Z,33
2019-05-03T06:18:31.000Z,33
2019-05-03T06:19:31.000Z,33
2019-05-03T06:20:31.000Z,33
2019-05-03T06:21:31.000Z,33
2019-05-03T06:22:31.000Z,33
2019-05-03T06:23:31.000Z,33
2019-05-03T06:24:31.000Z,33
2019-05-03T06:25:31.000Z,33
2019-05-03T06:26:31.000Z,32
2019-05-03T06:27:31.000Z,32
2019-05-03T06:28:31.000Z,32
2019-05-03T06:29:31.000Z,32
2019-05-03T06:30:31.000Z,32
2019-05-03T06:31:31.000Z,32
2019-05-03T06:33:31.000Z,32
2019-05-03T06:35:31.000Z,32
2019-05-03T06:36:31.000Z,32
2019-05-03T06:37:31.000Z,32
2019-05-03T06:38:31.000Z,32
2019-05-03T06:39:31.000Z,32
2019-05-03T06:41:31.000Z,32
2019-05-03T06:42:31.000Z,32
2019-05-03T06:43:31.000Z,32
2019-05-03T06:45:31.000Z,31
2019-05-03T07:28:39.000Z,33
2019-05-03T07:29:39.000Z,33
2019-05-03T07:30:39.000Z,33
2019-05-03T07:31:39.000Z,33
2019-05-03T07:32:39.000Z,33
2019-05-03T07:33:39.000Z,33
2019-05-03T07:34:39.000Z,32
2019-05-03T07:35:39.000Z,32
2019-05-03T07:36:39.000Z,32
2019-05-03T07:37:39.000Z,32
2019-05-03T07:38:39.000Z,32
2019-05-03T07:39:39.000Z,31
2019-05-03T07:40:39.000Z,31
2019-05-03T07:42:39.000Z,30
2019-05-03T07:44:39.000Z,29
2019-05-03T07:45:39.000Z,29
2019-05-03T07:46:39.000Z,29
2019-05-03T07:47:39.000Z,29
2019-05-03T07:48:39.000Z,29
2019-05-03T07:49:39.000Z,29
2019-05-03T07:50:39.000Z,29
2019-05-03T07:51:39.000Z,29
2019-05-03T07:52:39.000Z,29
2019-05-03T07:53:39.000Z,29
2019-05-03T07:54:39.000Z,29
2019-05-03T07:55:39.000Z,29
2019-05-03T07:56:39.000Z,29
2019-05-03T07:57:39.000Z,29
2019-05-03T07:58:39.000Z,29
2019-05-03T07:59:39.000Z,28
2019-05-03T08:00:39.000Z,28
2019-05-03T08:01:39.000Z,28
2019-05-03T08:03:39.000Z,29
2019-05-03T08:04:39.000Z,29
2019-05-03T08:05:39.000Z,29
2019-05-03T08:06:39.000Z,29
2019-05-03T08:07:39.000Z,29
2019-05-03T08:09:39.000Z,29
2019-05-03T08:10:39.000Z,30
2019-05-03T08:11:39.000Z,30
2019-05-03T08:13:39.000Z,30
2019-05-03T08:14:39.000Z,30
2019-05-03T08:16:39.000Z,30
2019-05-03T08:17:39.000Z,30
2019-05-03T08:18:39.000Z,30
2019-05-03T08:19:39.000Z,30
2019-05-03T08:20:39.000Z,30
2019-05-03T08:22:39.000Z,29
2019-05-03T08:23:39.000Z,29
2019-05-03T08:24:39.000Z,29
2019-05-03T08:25:39.000Z,29
2019-05-03T08:26:39.000Z,29
2019-05-03T08:27:39.000Z,29
2019-05-03T08:28:39.000Z,29
2019-05-03T08:29:39.000Z,29
2019-05-03T08:30:39.000Z,29
2019-05-03T08:31:39.000Z,29
2019-05-03T08:32:39.000Z,30
2019-05-03T08:33:39.000Z,30
2019-05-03T08:34:39.000Z,29
2019-05-03T08:35:39.000Z,29
2019-05-03T08:36:39.000Z,29
2019-05-03T08:37:39.000Z,29
2019-05-03T08:38:39.000Z,29
2019-05-03T08:39:39.000Z,29
2019-05-03T08:40:39.000Z,29
2019-05-03T08:41:39.000Z,29
2019-05-03T08:42:39.000Z,29
2019-05-03T08:43:39.000Z,29
2019-05-03T08:44:39.000Z,29
2019-05-03T08:45:39.000Z,29
2019-05-03T08:46:39.000Z,29
2019-05-03T08:48:39.000Z,28
2019-05-03T08:49:39.000Z,28
2019-05-03T08:50:39.000Z,28
2019-05-03T08:51:39.000Z,28
2019-05-03T08:52:39.000Z,28
2019-05-03T08:53:39.000Z,28
2019-05-03T08:55:39.000Z,28
2019-05-03T08:56:39.000Z,28
2019-05-03T08:57:39.000Z,28
2019-05-03T08:59:39.000Z,28
2019-05-03T09:00:39.000Z,28
2019-05-03T09:01:39.000Z,28
2019-05-03T09:02:39.000Z,28
2019-05-03T09:04:39.000Z,28
2019-05-03T09:05:39.000Z,28
2019-05-03T09:07:39.000Z,28
2019-05-03T09:08:39.000Z,28
2019-05-03T09:09:39.000Z,28
2019-05-03T09:10:39.000Z,28
2019-05-03T09:12:39.000Z,28
2019-05-03T09:13:39.000Z,28
2019-05-03T09:14:39.000Z,28
2019-05-03T09:15:39.000Z,28
2019-05-03T09:16:39.000Z,28
2019-05-03T09:17:39.000Z,28
2019-05-03T09:18:39.000Z,27
2019-05-03T09:19:39.000Z,27
2019-05-03T09:20:39.000Z,27
2019-05-03T09:21:39.000Z,27
2019-05-03T09:22:39.000Z,27
2019-05-03T09:23:39.000Z,26
2019-05-03T09:25:39.000Z,26
2019-05-03T09:26:39.000Z,26
2019-05-03T09:27:39.000Z,26
2019-05-03T09:29:39.000Z,26
2019-05-03T09:30:39.000Z,26
2019-05-03T09:31:39.000Z,26
2019-05-03T09:32:39.000Z,26
2019-05-03T09:33:39.000Z,26
2019-05-03T09:34:39.000Z,26
2019-05-03T09:36:39.000Z,26
2019-05-03T09:37:39.000Z,27
2019-05-03T09:38:39.000Z,27
2019-05-03T09:39:39.000Z,27
2019-05-03T09:40:39.000Z,27
2019-05-03T09:41:39.000Z,27
2019-05-03T09:42:39.000Z,27
2019-05-03T09:43:39.000Z,27
2019-05-03T09:44:39.000Z,27
2019-05-03T09:45:39.000Z,27
2019-05-03T09:46:39.000Z,27
2019-05-03T09:47:39.000Z,27
2019-05-03T09:48:39.000Z,27
2019-05-03T09:50:39.000Z,27
2019-05-03T09:51:39.000Z,27
2019-05-03T09:52:39.000Z,27
2019-05-03T09:53:39.000Z,27
2019-05-03T09:54:39.000Z,27
2019-05-03T09:56:39.000Z,27
2019-05-03T09:57:39.000Z,27
2019-05-03T09:58:39.000Z,27
2019-05-03T09:59:39.000Z,27
2019-05-03T10:00:39.000Z,27
2019-05-03T10:01:39.000Z,27
2019-05-03T10:02:39.000Z,28
2019-05-03T10:03:39.000Z,28
2019-05-03T10:05:39.000Z,27
2019-05-03T10:06:39.000Z,28
2019-05-03T10:07:39.000Z,27
2019-05-03T10:08:39.000Z,27
2019-05-03T10:09:39.000Z,27
2019-05-03T10:10:39.000Z,27
2019-05-03T10:12:40.000Z,27
2019-05-03T10:14:40.000Z,27
2019-05-03T10:15:40.000Z,27
2019-05-03T10:16:40.000Z,27
2019-05-03T10:18:40.000Z,27
2019-05-03T10:19:40.000Z,27
2019-05-03T10:20:40.000Z,27
2019-05-03T10:21:40.000Z,27
2019-05-03T10:23:40.000Z,27
2019-05-03T10:24:40.000Z,27
2019-05-03T10:25:40.000Z,27
2019-05-03T10:27:40.000Z,28
2019-05-03T10:28:40.000Z,28
2019-05-03T10:29:40.000Z,28
2019-05-03T10:30:40.000Z,28
2019-05-03T10:31:40.000Z,28
2019-05-03T10:32:40.000Z,28
2019-05-03T10:33:40.000Z,28
2019-05-03T10:34:40.000Z,28
2019-05-03T10:35:40.000Z,29
2019-05-03T10:36:40.000Z,29
2019-05-03T10:37:40.000Z,29
2019-05-03T10:38:40.000Z,29
2019-05-03T10:39:40.000Z,29
2019-05-03T10:40:40.000Z,29
2019-05-03T10:41:40.000Z,29
2019-05-03T10:42:40.000Z,29
2019-05-03T10:43:40.000Z,29
2019-05-03T10:44:40.000Z,29
2019-05-03T10:45:40.000Z,29
2019-05-03T10:46:40.000Z,29
2019-05-03T10:47:40.000Z,29
2019-05-03T10:48:40.000Z,29
2019-05-03T10:50:40.000Z,29
2019-05-03T10:51:40.000Z,30
2019-05-03T10:52:40.000Z,30
2019-05-03T10:53:40.000Z,30
2019-05-03T10:54:40.000Z,30
2019-05-03T10:55:40.000Z,30
2019-05-03T10:56:40.000Z,30
2019-05-03T10:57:40.000Z,30
2019-05-03T10:58:40.000Z,30
2019-05-03T10:59:40.000Z,30
2019-05-03T11:00:40.000Z,30
2019-05-03T11:01:40.000Z,30
2019-05-03T11:02:40.000Z,30
2019-05-03T11:03:40.000Z,30
2019-05-03T11:04:40.000Z,30
2019-05-03T11:06:40.000Z,30
2019-05-03T11:08:40.000Z,30
2019-05-03T11:09:40.000Z,30
2019-05-03T11:10:40.000Z,30
2019-05-03T11:11:40.000Z,30
2019-05-03T11:12:40.000Z,30
2019-05-03T11:13:40.000Z,30
2019-05-03T11:14:40.000Z,30
2019-05-03T11:15:40.000Z,30
2019-05-03T11:16:39.000Z,30
2019-05-03T11:17:39.000Z,30
2019-05-03T11:18:39.000Z,30
2019-05-03T11:19:39.000Z,30
2019-05-03T11:20:39.000Z,30
2019-05-03T11:21:39.000Z,30
2019-05-03T11:22:39.000Z,30
2019-05-03T11:23:39.000Z,30
2019-05-03T11:24:39.000Z,30
2019-05-03T11:25:39.000Z,30
2019-05-03T11:26:39.000Z,30
2019-05-03T11:27:39.000Z,30
2019-05-03T11:28:39.000Z,30
2019-05-03T11:29:39.000Z,30
2019-05-03T11:30:39.000Z,30
2019-05-03T11:31:39.000Z,29
2019-05-03T11:32:39.000Z,29
2019-05-03T11:33:39.000Z,29
2019-05-03T11:35:39.000Z,29
2019-05-03T11:36:39.000Z,29
2019-05-03T11:37:39.000Z,30
2019-05-03T11:38:39.000Z,29
2019-05-03T11:39:39.000Z,29
2019-05-03T11:40:39.000Z,29
2019-05-03T11:41:39.000Z,29
2019-05-03T11:42:39.000Z,29
2019-05-03T11:43:39.000Z,29
2019-05-03T11:44:39.000Z,29
2019-05-03T11:45:39.000Z,30
2019-05-03T11:46:39.000Z,29
2019-05-03T11:47:39.000Z,30
2019-05-03T11:48:39.000Z,29
2019-05-03T11:52:00.000Z,29
2019-05-03T11:53:00.000Z,29
2019-05-03T11:55:00.000Z,29
2019-05-03T11:56:00.000Z,29
2019-05-03T11:57:00.000Z,29
2019-05-03T11:58:00.000Z,29
2019-05-03T11:59:00.000Z,29
2019-05-03T12:01:00.000Z,29
2019-05-03T12:02:00.000Z,29
2019-05-03T12:03:00.000Z,29
2019-05-03T12:04:00.000Z,29
2019-05-03T12:05:00.000Z,29
2019-05-03T12:06:00.000Z,29
2019-05-03T12:08:00.000Z,29
2019-05-03T12:10:00.000Z,29
2019-05-03T12:11:00.000Z,29
2019-05-03T12:12:00.000Z,29
2019-05-03T12:13:00.000Z,30
2019-05-03T12:14:00.000Z,29
2019-05-03T12:15:00.000Z,29
2019-05-03T12:16:00.000Z,30
2019-05-03T12:17:00.000Z,29
2019-05-03T12:18:00.000Z,29
2019-05-03T12:19:00.000Z,29
2019-05-03T12:20:00.000Z,30
2019-05-03T12:21:00.000Z,30
2019-05-03T12:22:00.000Z,30
2019-05-03T12:23:00.000Z,30
2019-05-03T12:24:00.000Z,30
2019-05-03T12:25:00.000Z,30
2019-05-03T12:27:00.000Z,30
2019-05-03T12:28:00.000Z,30
2019-05-03T12:30:00.000Z,30
2019-05-03T12:31:00.000Z,30
2019-05-03T12:32:00.000Z,30
2019-05-03T12:33:00.000Z,30
2019-05-03T12:35:00.000Z,30
2019-05-03T12:36:00.000Z,30
2019-05-03T12:37:00.000Z,30
2019-05-03T12:38:00.000Z,30
2019-05-03T12:39:00.000Z,30
2019-05-03T12:40:00.000Z,30
2019-05-03T12:41:00.000Z,30
2019-05-03T12:43:00.000Z,30
2019-05-03T12:44:00.000Z,30
2019-05-03T12:45:00.000Z,30
2019-05-03T12:46:00.000Z,30
2019-05-03T12:47:00.000Z,30
2019-05-03T12:48:00.000Z,30
2019-05-03T12:49:00.000Z,30
2019-05-03T12:50:00.000Z,30
2019-05-03T12:51:00.000Z,30
2019-05-03T12:52:00.000Z,30
2019-05-03T12:53:00.000Z,30
2019-05-03T12:55:00.000Z,30
2019-05-03T12:56:00.000Z,30
2019-05-03T12:57:00.000Z,30
2019-05-03T12:58:00.000Z,30
2019-05-03T12:59:00.000Z,30
2019-05-03T13:00:00.000Z,30
2019-05-03T13:01:00.000Z,30
2019-05-03T13:02:00.000Z,30
2019-05-03T13:03:00.000Z,30
2019-05-03T13:04:00.000Z,30
2019-05-03T13:05:00.000Z,30
2019-05-03T13:06:00.000Z,30
2019-05-03T13:07:00.000Z,30
2019-05-03T13:09:00.000Z,30
2019-05-03T13:10:00.000Z,30
2019-05-03T13:11:00.000Z,30
2019-05-03T13:12:00.000Z,30
2019-05-03T13:13:00.000Z,30
2019-05-03T13:14:00.000Z,30
2019-05-03T13:15:00.000Z,30
2019-05-03T13:16:00.000Z,30
2019-05-03T13:17:00.000Z,30
2019-05-03T13:18:00.000Z,30
2019-05-03T13:19:00.000Z,30
2019-05-03T13:20:00.000Z,30
2019-05-03T13:21:00.000Z,30
2019-05-03T13:22:00.000Z,30
2019-05-03T13:23:00.000Z,30
2019-05-03T13:24:00.000Z,30
2019-05-03T13:26:00.000Z,29
2019-05-03T13:27:00.000Z,30
2019-05-03T13:28:00.000Z,30
2019-05-03T13:29:00.000Z,30
2019-05-03T13:30:00.000Z,30
2019-05-03T13:31:00.000Z,30
2019-05-03T13:32:00.000Z,30
2019-05-03T13:33:00.000Z,29
2019-05-03T13:34:00.000Z,30
2019-05-03T13:35:00.000Z,30
2019-05-03T13:36:00.000Z,30
2019-05-03T13:37:00.000Z,30
2019-05-03T13:38:00.000Z,30
2019-05-03T13:39:00.000Z,29
2019-05-03T13:40:00.000Z,29
2019-05-03T13:41:00.000Z,30
2019-05-03T13:42:00.000Z,30
2019-05-03T13:43:00.000Z,30
2019-05-03T13:44:00.000Z,29
2019-05-03T13:46:00.000Z,29
2019-05-03T13:47:00.000Z,30
2019-05-03T13:48:00.000Z,30
2019-05-03T13:49:00.000Z,30
2019-05-03T13:50:00.000Z,30
2019-05-03T13:51:00.000Z,30
2019-05-03T13:52:00.000Z,30
2019-05-03T13:53:00.000Z,30
2019-05-03T13:54:00.000Z,30
2019-05-03T13:55:00.000Z,30
2019-05-03T13:57:00.000Z,30
2019-05-03T13:59:00.000Z,30
2019-05-03T14:00:00.000Z,30
2019-05-03T14:02:01.000Z,30
2019-05-03T14:03:01.000Z,30
2019-05-03T14:04:01.000Z,30
2019-05-03T14:05:01.000Z,30
2019-05-03T14:06:01.000Z,30
2019-05-03T14:07:01.000Z,30
2019-05-03T14:08:01.000Z,30
2019-05-03T14:09:01.000Z,30
2019-05-03T14:11:01.000Z,30
2019-05-03T14:12:01.000Z,30
2019-05-03T14:13:01.000Z,30
2019-05-03T14:14:01.000Z,30
2019-05-03T14:15:01.000Z,30
2019-05-03T14:17:01.000Z,30
2019-05-03T14:18:01.000Z,30
2019-05-03T14:19:01.000Z,30
2019-05-03T14:20:01.000Z,30
2019-05-03T14:21:01.000Z,30
2019-05-03T14:22:01.000Z,30
2019-05-03T14:23:01.000Z,30
2019-05-03T14:24:01.000Z,30
2019-05-03T14:25:01.000Z,30
2019-05-03T14:26:01.000Z,30
2019-05-03T14:28:01.000Z,30
2019-05-03T14:29:01.000Z,30
2019-05-03T14:30:01.000Z,30
2019-05-03T14:31:01.000Z,30
2019-05-03T14:32:01.000Z,30
2019-05-03T14:33:01.000Z,30
2019-05-03T14:34:01.000Z,30
2019-05-03T14:35:01.000Z,30
2019-05-03T14:36:01.000Z,30
2019-05-03T14:37:01.000Z,30
2019-05-03T14:39:01.000Z,30
2019-05-03T14:40:01.000Z,30
2019-05-03T14:41:01.000Z,30
2019-05-03T14:42:01.000Z,30
2019-05-03T14:43:01.000Z,30
2019-05-03T14:44:01.000Z,30
2019-05-03T14:45:01.000Z,30
2019-05-03T14:46:01.000Z,30
2019-05-03T14:48:01.000Z,30
2019-05-03T14:49:01.000Z,30
2019-05-03T14:50:01.000Z,30
2019-05-03T14:51:01.000Z,30
2019-05-03T14:52:01.000Z,30
2019-05-03T14:53:01.000Z,30
2019-05-03T14:54:01.000Z,30
2019-05-03T14:55:01.000Z,30
2019-05-03T14:56:01.000Z,30
2019-05-03T14:58:01.000Z,30
2019-05-03T14:59:01.000Z,29
2019-05-03T15:00:01.000Z,29
2019-05-03T15:01:01.000Z,29
2019-05-03T15:03:01.000Z,30
2019-05-03T15:04:01.000Z,30
2019-05-03T15:06:00.000Z,30
2019-05-03T15:07:00.000Z,30
2019-05-03T15:08:00.000Z,30
2019-05-03T15:09:00.000Z,30
2019-05-03T15:10:00.000Z,30
2019-05-03T15:11:00.000Z,30
2019-05-03T15:12:00.000Z,30
2019-05-03T15:13:00.000Z,30
2019-05-03T15:14:00.000Z,30
2019-05-03T15:15:00.000Z,30
2019-05-03T15:16:00.000Z,30
2019-05-03T15:17:00.000Z,30
2019-05-03T15:19:00.000Z,30
2019-05-03T15:20:00.000Z,30
2019-05-03T15:21:00.000Z,30
2019-05-03T15:22:00.000Z,30
2019-05-03T15:23:00.000Z,30
2019-05-03T15:25:00.000Z,30
2019-05-03T15:26:00.000Z,30
2019-05-03T15:28:00.000Z,30
2019-05-03T15:30:00.000Z,30
2019-05-03T15:31:00.000Z,30
2019-05-03T15:33:00.000Z,30
2019-05-03T15:34:00.000Z,30
2019-05-03T15:36:00.000Z,30
2019-05-03T15:37:00.000Z,30
2019-05-03T15:38:00.000Z,30
2019-05-03T15:39:00.000Z,30
2019-05-03T15:41:00.000Z,30
2019-05-03T15:42:00.000Z,30
2019-05-03T15:44:00.000Z,30
2019-05-03T15:45:00.000Z,30
2019-05-03T15:46:00.000Z,30
2019-05-03T15:48:00.000Z,30
2019-05-03T15:49:00.000Z,30
2019-05-03T15:50:00.000Z,30
2019-05-03T15:51:00.000Z,30
2019-05-03T15:52:00.000Z,30
2019-05-03T15:53:00.000Z,30
2019-05-03T15:55:00.000Z,29
2019-05-03T15:56:00.000Z,29
2019-05-03T15:57:00.000Z,29
2019-05-03T15:58:00.000Z,29
2019-05-03T16:00:00.000Z,29
2019-05-03T16:01:00.000Z,29
2019-05-03T16:02:00.000Z,29
2019-05-03T16:03:00.000Z,29
2019-05-03T16:04:00.000Z,29
2019-05-03T16:05:00.000Z,29
2019-05-03T16:06:00.000Z,29
2019-05-03T16:07:00.000Z,29
2019-05-03T16:08:00.000Z,29
2019-05-03T16:09:01.000Z,29
2019-05-03T16:10:01.000Z,29
2019-05-03T16:11:01.000Z,29
2019-05-03T16:12:01.000Z,29
2019-05-03T16:14:01.000Z,29
2019-05-03T16:15:01.000Z,29
2019-05-03T16:16:01.000Z,29
2019-05-03T16:17:01.000Z,29
2019-05-03T16:18:01.000Z,29
2019-05-03T16:19:01.000Z,29
2019-05-03T16:20:01.000Z,29
2019-05-03T16:21:01.000Z,29
2019-05-03T16:22:01.000Z,29
2019-05-03T16:24:01.000Z,29
2019-05-03T16:25:01.000Z,29
2019-05-03T16:26:01.000Z,29
2019-05-03T16:27:01.000Z,29
2019-05-03T16:28:01.000Z,29
2019-05-03T16:30:01.000Z,29
2019-05-03T16:31:01.000Z,29
2019-05-03T16:32:01.000Z,29
2019-05-03T16:33:01.000Z,29
2019-05-03T16:34:01.000Z,29
2019-05-03T16:36:01.000Z,29
2019-05-03T16:38:01.000Z,29
2019-05-03T16:39:01.000Z,29
2019-05-03T16:40:01.000Z,29
2019-05-03T16:41:01.000Z,29
2019-05-03T16:43:01.000Z,29
2019-05-03T16:44:01.000Z,29
2019-05-03T16:45:01.000Z,29
2019-05-03T16:46:01.000Z,29
2019-05-03T16:47:01.000Z,29
2019-05-03T16:48:01.000Z,29
2019-05-03T16:49:01.000Z,29
2019-05-03T16:50:01.000Z,29
2019-05-03T16:51:01.000Z,29
2019-05-03T16:52:01.000Z,29
2019-05-03T16:53:01.000Z,29
2019-05-03T16:55:01.000Z,29
2019-05-03T16:56:01.000Z,29